createdAt,value
2017-03-07T13:25:36.142Z,22
2017-03-07T13:26:35.097Z,21.9
2017-03-07T13:42:37.616Z,11.3
2017-03-07T13:45:10.071Z,11.3
2017-03-07T13:47:42.558Z,10.5
2017-03-07T13:50:15.009Z,10.3
2017-03-07T13:52:47.489Z,10.1
2017-03-07T13:55:19.976Z,9.9
2017-03-07T13:57:52.465Z,9.6
2017-03-07T14:00:25.356Z,9.3
2017-03-07T14:02:57.837Z,9.2
2017-03-07T14:05:30.378Z,9.1
2017-03-07T14:08:02.906Z,9
2017-03-07T14:10:35.434Z,8.9
2017-03-07T14:13:07.961Z,8.8
2017-03-07T14:15:40.512Z,8.8
2017-03-07T14:18:12.990Z,8.7
2017-03-07T14:20:45.683Z,8.5
2017-03-07T14:23:18.316Z,8.5
2017-03-07T14:25:51.177Z,8.4
2017-03-07T14:28:23.735Z,8.4
2017-03-07T14:30:56.360Z,8.4
2017-03-07T14:33:30.119Z,8.3
2017-03-07T14:36:03.044Z,8.3
2017-03-07T14:38:35.894Z,8.3
2017-03-07T14:41:08.915Z,8.2
2017-03-07T14:43:42.157Z,8.2
2017-03-07T14:46:14.940Z,8.2
2017-03-07T14:48:48.031Z,8.2
2017-03-07T14:51:21.362Z,8.1
2017-03-07T14:53:54.947Z,8
2017-03-07T14:56:29.088Z,8
2017-03-07T14:59:02.772Z,8
2017-03-07T15:01:36.620Z,8
2017-03-07T15:04:11.657Z,8
2017-03-07T15:06:45.416Z,8
2017-03-07T15:09:18.906Z,8
2017-03-07T15:11:52.327Z,7.9
2017-03-07T15:14:25.639Z,7.9
2017-03-07T15:16:59.345Z,7.9
2017-03-07T15:19:33.882Z,7.8
2017-03-07T15:22:06.647Z,7.8
2017-03-07T15:24:39.110Z,7.8
2017-03-07T15:27:11.604Z,7.8
2017-03-07T15:29:44.095Z,7.8
2017-03-07T15:32:16.983Z,7.8
2017-03-07T15:34:49.903Z,7.9
2017-03-07T15:37:22.386Z,7.8
2017-03-07T15:39:54.835Z,7.8
2017-03-07T15:42:28.149Z,7.8
2017-03-07T15:45:00.702Z,7.7
2017-03-07T15:47:33.193Z,7.7
2017-03-07T15:50:05.672Z,7.7
2017-03-07T15:52:38.147Z,7.7
2017-03-07T15:55:10.623Z,7.6
2017-03-07T15:57:43.113Z,7.6
2017-03-07T16:00:15.562Z,7.5
2017-03-07T16:02:48.449Z,7.5
2017-03-07T16:05:20.914Z,7.5
2017-03-07T16:07:53.437Z,7.5
2017-03-07T16:10:25.919Z,7.5
2017-03-07T16:12:58.375Z,7.4
2017-03-07T16:15:30.831Z,7.4
2017-03-07T16:18:03.709Z,7.4
2017-03-07T16:20:36.230Z,7.4
2017-03-07T16:23:10.090Z,7.4
2017-03-07T16:25:43.162Z,7.4
2017-03-07T16:28:22.816Z,7.4
2017-03-07T16:30:57.985Z,7.3
2017-03-07T16:33:31.974Z,7.3
2017-03-07T16:36:05.416Z,7.2
2017-03-07T16:38:39.223Z,7.2
2017-03-07T16:41:12.553Z,7.2
2017-03-07T16:43:46.732Z,7.2
2017-03-07T16:46:21.251Z,7.2
2017-03-07T16:48:54.884Z,7.1
2017-03-07T16:51:28.122Z,7.1
2017-03-07T16:54:01.147Z,7.1
2017-03-07T16:56:34.300Z,7.1
2017-03-07T16:59:07.274Z,7.1
2017-03-07T17:01:40.340Z,7
2017-03-07T17:04:12.987Z,7
2017-03-07T17:06:46.422Z,7
2017-03-07T17:09:19.872Z,7
2017-03-07T17:11:53.341Z,7
2017-03-07T17:14:26.237Z,7
2017-03-07T17:16:58.996Z,6.9
2017-03-07T17:19:32.191Z,6.9
2017-03-07T17:22:05.362Z,6.9
2017-03-07T17:24:38.259Z,6.9
2017-03-07T17:27:12.110Z,6.8
2017-03-07T17:29:44.756Z,6.8
2017-03-07T17:32:17.751Z,6.8
2017-03-07T17:34:50.533Z,6.7
2017-03-07T17:37:23.521Z,6.8
2017-03-07T17:39:56.433Z,6.8
2017-03-07T17:42:29.825Z,6.8
2017-03-07T17:45:02.952Z,6.8
2017-03-07T17:47:36.612Z,6.8
2017-03-07T17:50:09.222Z,6.8
2017-03-07T17:52:42.525Z,6.8
2017-03-07T17:55:15.087Z,6.8
2017-03-07T17:57:47.912Z,6.8
2017-03-07T18:00:20.656Z,6.8
2017-03-07T18:02:53.889Z,6.8
2017-03-07T18:05:26.931Z,6.8
2017-03-07T18:08:00.811Z,6.8
2017-03-07T18:10:34.269Z,6.8
2017-03-07T18:13:07.116Z,6.8
2017-03-07T18:15:40.001Z,6.8
2017-03-07T18:18:12.769Z,6.8
2017-03-07T18:20:45.678Z,6.8
2017-03-07T18:23:18.119Z,6.8
2017-03-07T18:25:50.601Z,6.7
2017-03-07T18:28:23.077Z,6.8
2017-03-07T18:30:55.942Z,6.7
2017-03-07T18:33:28.422Z,6.8
2017-03-07T18:36:01.023Z,6.8
2017-03-07T18:38:33.515Z,6.8
2017-03-07T18:41:06.037Z,6.8
2017-03-07T18:43:38.651Z,6.8
2017-03-07T18:46:11.110Z,6.8
2017-03-07T18:48:43.576Z,6.8
2017-03-07T18:51:16.180Z,6.8
2017-03-07T18:53:48.745Z,6.8
2017-03-07T18:56:21.314Z,6.7
2017-03-07T18:58:54.206Z,6.7
2017-03-07T19:01:26.654Z,6.7
2017-03-07T19:03:59.091Z,6.6
2017-03-07T19:06:31.568Z,6.6
2017-03-07T19:09:04.034Z,6.6
2017-03-07T19:11:36.943Z,6.6
2017-03-07T19:14:09.403Z,6.6
2017-03-07T19:16:41.880Z,6.6
2017-03-07T19:19:14.826Z,6.5
2017-03-07T19:21:47.279Z,6.5
2017-03-07T19:24:19.806Z,6.5
2017-03-07T19:26:52.716Z,6.5
2017-03-07T19:29:25.191Z,6.5
2017-03-07T19:31:58.063Z,6.5
2017-03-07T19:34:30.534Z,6.5
2017-03-07T19:37:02.991Z,6.5
2017-03-07T19:39:35.506Z,6.5
2017-03-07T19:42:07.986Z,6.5
2017-03-07T19:44:40.454Z,6.5
2017-03-07T19:47:12.943Z,6.5
2017-03-07T19:49:45.448Z,6.5
2017-03-07T19:52:17.899Z,6.5
2017-03-07T19:54:51.096Z,6.5
2017-03-07T19:57:23.591Z,6.4
2017-03-07T19:59:56.075Z,6.4
2017-03-07T20:02:28.551Z,6.4
2017-03-07T20:05:01.024Z,6.4
2017-03-07T20:07:34.432Z,6.3
2017-03-07T20:10:06.910Z,6.3
2017-03-07T20:12:39.357Z,6.3
2017-03-07T20:15:11.814Z,6.4
2017-03-07T20:17:44.697Z,6.4
2017-03-07T20:20:17.197Z,6.4
2017-03-07T20:22:50.934Z,6.4
2017-03-07T20:25:23.801Z,6.4
2017-03-07T20:27:56.632Z,6.4
2017-03-07T20:30:30.193Z,6.4
2017-03-07T20:33:02.895Z,6.4
2017-03-07T20:35:35.383Z,6.3
2017-03-07T20:38:08.281Z,6.3
2017-03-07T20:40:40.758Z,6.3
2017-03-07T20:43:13.229Z,6.3
2017-03-07T20:45:45.708Z,6.3
2017-03-07T20:48:18.163Z,6.3
2017-03-07T20:50:50.957Z,6.4
2017-03-07T20:53:23.434Z,6.4
2017-03-07T20:55:56.324Z,6.4
2017-03-07T20:58:29.208Z,6.3
2017-03-07T21:01:02.396Z,6.3
2017-03-07T21:03:34.927Z,6.3
2017-03-07T21:06:07.845Z,6.3
2017-03-07T21:08:40.320Z,6.2
2017-03-07T21:11:13.045Z,6.3
2017-03-07T21:13:45.967Z,6.3
2017-03-07T21:16:18.587Z,6.3
2017-03-07T21:18:51.035Z,6.4
2017-03-07T21:21:23.543Z,6.3
2017-03-07T21:23:56.454Z,6.4
2017-03-07T21:26:28.902Z,6.4
2017-03-07T21:29:01.796Z,6.4
2017-03-07T21:31:34.273Z,6.4
2017-03-07T21:34:06.768Z,6.5
2017-03-07T21:36:39.293Z,6.5
2017-03-07T21:39:12.149Z,6.5
2017-03-07T21:41:45.189Z,6.5
2017-03-07T21:44:17.638Z,6.5
2017-03-07T21:46:50.122Z,6.5
2017-03-07T21:49:22.583Z,6.6
2017-03-07T21:51:55.497Z,6.5
2017-03-07T21:54:28.549Z,6.6
2017-03-07T21:57:01.013Z,6.5
2017-03-07T21:59:33.656Z,6.5
2017-03-07T22:02:06.111Z,6.5
2017-03-07T22:04:38.592Z,6.5
2017-03-07T22:07:11.040Z,6.5
2017-03-07T22:09:43.947Z,6.5
2017-03-07T22:12:16.437Z,6.5
2017-03-07T22:14:48.923Z,6.5
2017-03-07T22:17:21.371Z,6.5
2017-03-07T22:19:54.264Z,6.5
2017-03-07T22:22:26.766Z,6.5
2017-03-07T22:24:59.240Z,6.5
2017-03-07T22:27:31.725Z,6.5
2017-03-07T22:30:04.180Z,6.5
2017-03-07T22:32:36.637Z,6.5
2017-03-07T22:35:09.135Z,6.5
2017-03-07T22:37:41.621Z,6.5
2017-03-07T22:40:14.088Z,6.4
2017-03-07T22:42:46.961Z,6.4
2017-03-07T22:45:19.444Z,6.3
2017-03-07T22:47:51.894Z,6.4
2017-03-07T22:50:24.388Z,6.4
2017-03-07T22:52:57.273Z,6.3
2017-03-07T22:55:29.780Z,6.3
2017-03-07T22:58:02.223Z,6.3
2017-03-07T23:00:34.691Z,6.3
2017-03-07T23:03:07.592Z,6.3
2017-03-07T23:05:40.483Z,6.3
2017-03-07T23:08:13.379Z,6.2
2017-03-07T23:10:45.849Z,6.3
2017-03-07T23:13:18.325Z,6.3
2017-03-07T23:15:51.202Z,6.3
2017-03-07T23:18:23.658Z,6.3
2017-03-07T23:20:56.124Z,6.3
2017-03-07T23:23:28.581Z,6.3
2017-03-07T23:26:01.065Z,6.3
2017-03-07T23:28:33.529Z,6.3
2017-03-07T23:31:05.990Z,6.3
2017-03-07T23:33:38.487Z,6.3
2017-03-07T23:36:10.976Z,6.3
2017-03-07T23:38:44.737Z,6.3
2017-03-07T23:41:17.254Z,6.3
2017-03-07T23:43:49.744Z,6.3
2017-03-07T23:46:22.214Z,6.3
2017-03-07T23:48:55.129Z,6.3
2017-03-07T23:51:28.438Z,6.3
2017-03-07T23:54:01.323Z,6.3
2017-03-07T23:56:34.283Z,6.2
2017-03-07T23:59:07.154Z,6.2
